sensor_id;sensor_type;location;lat;lon;timestamp;temperature;humidity
16655;DHT22;8441;51.344;7.022;2023-04-24T00:01:12;10.50;99.90
16655;DHT22;8441;51.344;7.022;2023-04-24T00:03:40;10.40;99.90
16655;DHT22;8441;51.344;7.022;2023-04-24T00:06:08;10.30;99.90
16655;DHT22;8441;51.344;7.022;2023-04-24T00:08:36;10.20;99.90
16655;DHT22;8441;51.344;7.022;2023-04-24T00:11:04;10.00;99.90
16655;DHT22;8441;51.344;7.022;2023-04-24T00:13:31;9.90;99.90
16655;DHT22;8441;51.344;7.022;2023-04-24T00:15:58;9.80;99.90
16655;DHT22;8441;51.344;7.022;2023-04-24T00:18:25;9.80;99.90
16655;DHT22;8441;51.344;7.022;2023-04-24T00:20:52;9.70;99.90
16655;DHT22;8441;51.344;7.022;2023-04-24T00:23:20;9.60;99.90
16655;DHT22;8441;51.344;7.022;2023-04-24T00:25:48;9.60;99.90
16655;DHT22;8441;51.344;7.022;2023-04-24T00:28:16;9.50;99.90
16655;DHT22;8441;51.344;7.022;2023-04-24T00:30:43;9.40;99.90
16655;DHT22;8441;51.344;7.022;2023-04-24T00:33:10;9.40;99.90
16655;DHT22;8441;51.344;7.022;2023-04-24T00:35:37;9.30;99.90
16655;DHT22;8441;51.344;7.022;2023-04-24T00:38:04;9.30;99.90
16655;DHT22;8441;51.344;7.022;2023-04-24T00:40:32;9.20;99.90
16655;DHT22;8441;51.344;7.022;2023-04-24T00:43:00;9.20;99.90
16655;DHT22;8441;51.344;7.022;2023-04-24T00:45:28;9.10;99.90
16655;DHT22;8441;51.344;7.022;2023-04-24T00:47:57;9.20;99.90
16655;DHT22;8441;51.344;7.022;2023-04-24T00:50:24;9.10;99.90
16655;DHT22;8441;51.344;7.022;2023-04-24T00:52:52;9.10;99.90
16655;DHT22;8441;51.344;7.022;2023-04-24T00:55:19;9.00;99.90
16655;DHT22;8441;51.344;7.022;2023-04-24T00:57:49;9.00;99.90
16655;DHT22;8441;51.344;7.022;2023-04-24T01:00:19;9.00;99.90
16655;DHT22;8441;51.344;7.022;2023-04-24T01:02:46;9.10;99.90
16655;DHT22;8441;51.344;7.022;2023-04-24T01:05:15;9.10;99.90
16655;DHT22;8441;51.344;7.022;2023-04-24T01:07:45;9.20;99.90
16655;DHT22;8441;51.344;7.022;2023-04-24T01:10:15;9.20;99.90
16655;DHT22;8441;51.344;7.022;2023-04-24T01:12:43;9.30;99.90
16655;DHT22;8441;51.344;7.022;2023-04-24T01:15:10;9.30;99.90
16655;DHT22;8441;51.344;7.022;2023-04-24T01:17:39;9.40;99.90
16655;DHT22;8441;51.344;7.022;2023-04-24T01:20:07;9.40;99.90
16655;DHT22;8441;51.344;7.022;2023-04-24T01:22:36;9.40;99.90
16655;DHT22;8441;51.344;7.022;2023-04-24T01:25:05;9.50;99.90
16655;DHT22;8441;51.344;7.022;2023-04-24T01:27:32;9.40;99.90
16655;DHT22;8441;51.344;7.022;2023-04-24T01:29:59;9.40;99.90
16655;DHT22;8441;51.344;7.022;2023-04-24T01:32:27;9.40;99.90
16655;DHT22;8441;51.344;7.022;2023-04-24T01:34:54;9.30;99.90
16655;DHT22;8441;51.344;7.022;2023-04-24T01:37:22;9.20;99.90
16655;DHT22;8441;51.344;7.022;2023-04-24T01:39:50;9.10;99.90
16655;DHT22;8441;51.344;7.022;2023-04-24T01:42:18;9.00;99.90
16655;DHT22;8441;51.344;7.022;2023-04-24T01:44:45;8.90;99.90
16655;DHT22;8441;51.344;7.022;2023-04-24T01:47:12;8.80;99.90
16655;DHT22;8441;51.344;7.022;2023-04-24T01:49:40;8.70;99.90
16655;DHT22;8441;51.344;7.022;2023-04-24T01:52:07;8.60;99.90
16655;DHT22;8441;51.344;7.022;2023-04-24T01:54:34;8.60;99.90
16655;DHT22;8441;51.344;7.022;2023-04-24T01:57:03;8.50;99.90
16655;DHT22;8441;51.344;7.022;2023-04-24T01:59:31;8.40;99.90
16655;DHT22;8441;51.344;7.022;2023-04-24T02:01:58;8.40;99.90
16655;DHT22;8441;51.344;7.022;2023-04-24T02:04:26;8.30;99.90
16655;DHT22;8441;51.344;7.022;2023-04-24T02:06:53;8.20;99.90
16655;DHT22;8441;51.344;7.022;2023-04-24T02:09:20;8.10;99.90
16655;DHT22;8441;51.344;7.022;2023-04-24T02:11:47;8.10;99.90
16655;DHT22;8441;51.344;7.022;2023-04-24T02:14:16;8.10;99.90
16655;DHT22;8441;51.344;7.022;2023-04-24T02:16:43;8.10;99.90
16655;DHT22;8441;51.344;7.022;2023-04-24T02:19:11;8.20;99.90
16655;DHT22;8441;51.344;7.022;2023-04-24T02:21:38;8.30;99.90
16655;DHT22;8441;51.344;7.022;2023-04-24T02:24:05;8.40;99.90
16655;DHT22;8441;51.344;7.022;2023-04-24T02:26:33;8.40;99.90
16655;DHT22;8441;51.344;7.022;2023-04-24T02:29:00;8.40;99.90
16655;DHT22;8441;51.344;7.022;2023-04-24T02:31:28;8.50;99.90
16655;DHT22;8441;51.344;7.022;2023-04-24T02:33:55;8.50;99.90
16655;DHT22;8441;51.344;7.022;2023-04-24T02:36:23;8.60;99.90
16655;DHT22;8441;51.344;7.022;2023-04-24T02:38:50;8.60;99.90
16655;DHT22;8441;51.344;7.022;2023-04-24T02:41:17;8.60;99.90
16655;DHT22;8441;51.344;7.022;2023-04-24T02:43:45;8.60;99.90
16655;DHT22;8441;51.344;7.022;2023-04-24T02:46:12;8.70;99.90
16655;DHT22;8441;51.344;7.022;2023-04-24T02:48:41;8.70;99.90
16655;DHT22;8441;51.344;7.022;2023-04-24T02:51:08;8.70;99.90
16655;DHT22;8441;51.344;7.022;2023-04-24T02:53:35;8.70;99.90
16655;DHT22;8441;51.344;7.022;2023-04-24T02:56:02;8.80;99.90
16655;DHT22;8441;51.344;7.022;2023-04-24T02:58:30;8.80;99.90
16655;DHT22;8441;51.344;7.022;2023-04-24T03:00:57;8.80;99.90
16655;DHT22;8441;51.344;7.022;2023-04-24T03:03:24;8.80;99.90
16655;DHT22;8441;51.344;7.022;2023-04-24T03:05:53;8.70;99.90
16655;DHT22;8441;51.344;7.022;2023-04-24T03:08:21;8.80;99.90
16655;DHT22;8441;51.344;7.022;2023-04-24T03:10:48;8.80;99.90
16655;DHT22;8441;51.344;7.022;2023-04-24T03:13:16;8.80;99.90
16655;DHT22;8441;51.344;7.022;2023-04-24T03:15:43;8.80;99.90
16655;DHT22;8441;51.344;7.022;2023-04-24T03:18:10;8.80;99.90
16655;DHT22;8441;51.344;7.022;2023-04-24T03:20:37;8.80;99.90
16655;DHT22;8441;51.344;7.022;2023-04-24T03:23:06;8.80;99.90
16655;DHT22;8441;51.344;7.022;2023-04-24T03:25:33;8.80;99.90
16655;DHT22;8441;51.344;7.022;2023-04-24T03:28:00;8.80;99.90
16655;DHT22;8441;51.344;7.022;2023-04-24T03:30:28;8.80;99.90
16655;DHT22;8441;51.344;7.022;2023-04-24T03:32:55;8.80;99.90
16655;DHT22;8441;51.344;7.022;2023-04-24T03:35:23;8.80;99.90
16655;DHT22;8441;51.344;7.022;2023-04-24T03:37:50;8.80;99.90
16655;DHT22;8441;51.344;7.022;2023-04-24T03:40:18;8.80;99.90
16655;DHT22;8441;51.344;7.022;2023-04-24T03:42:46;8.80;99.90
16655;DHT22;8441;51.344;7.022;2023-04-24T03:45:13;8.80;99.90
16655;DHT22;8441;51.344;7.022;2023-04-24T03:47:40;8.80;99.90
16655;DHT22;8441;51.344;7.022;2023-04-24T03:50:08;8.80;99.90
16655;DHT22;8441;51.344;7.022;2023-04-24T03:52:35;8.80;99.90
16655;DHT22;8441;51.344;7.022;2023-04-24T03:55:02;8.80;99.90
16655;DHT22;8441;51.344;7.022;2023-04-24T03:57:31;8.80;99.90
16655;DHT22;8441;51.344;7.022;2023-04-24T03:59:58;8.80;99.90
16655;DHT22;8441;51.344;7.022;2023-04-24T04:02:25;8.80;99.90
16655;DHT22;8441;51.344;7.022;2023-04-24T04:04:52;8.80;99.90
16655;DHT22;8441;51.344;7.022;2023-04-24T04:07:20;8.80;99.90
16655;DHT22;8441;51.344;7.022;2023-04-24T04:09:47;8.80;99.90
16655;DHT22;8441;51.344;7.022;2023-04-24T04:12:14;8.80;99.90
16655;DHT22;8441;51.344;7.022;2023-04-24T04:14:42;8.80;99.90
16655;DHT22;8441;51.344;7.022;2023-04-24T04:17:09;8.80;99.90
16655;DHT22;8441;51.344;7.022;2023-04-24T04:19:37;8.80;99.90
16655;DHT22;8441;51.344;7.022;2023-04-24T04:22:04;8.80;99.90
16655;DHT22;8441;51.344;7.022;2023-04-24T04:24:31;8.80;99.90
16655;DHT22;8441;51.344;7.022;2023-04-24T04:26:58;8.80;99.90
16655;DHT22;8441;51.344;7.022;2023-04-24T04:29:26;8.80;99.90
16655;DHT22;8441;51.344;7.022;2023-04-24T04:31:54;8.80;99.90
16655;DHT22;8441;51.344;7.022;2023-04-24T04:34:21;8.80;99.90
16655;DHT22;8441;51.344;7.022;2023-04-24T04:36:49;8.80;99.90
16655;DHT22;8441;51.344;7.022;2023-04-24T04:39:16;8.80;99.90
16655;DHT22;8441;51.344;7.022;2023-04-24T04:41:44;8.70;99.90
16655;DHT22;8441;51.344;7.022;2023-04-24T04:44:12;8.70;99.90
16655;DHT22;8441;51.344;7.022;2023-04-24T04:46:39;8.80;99.90
16655;DHT22;8441;51.344;7.022;2023-04-24T04:49:08;8.70;99.90
16655;DHT22;8441;51.344;7.022;2023-04-24T04:51:36;8.70;99.90
16655;DHT22;8441;51.344;7.022;2023-04-24T04:54:03;8.70;99.90
16655;DHT22;8441;51.344;7.022;2023-04-24T04:56:31;8.70;99.90
16655;DHT22;8441;51.344;7.022;2023-04-24T04:58:58;8.70;99.90
16655;DHT22;8441;51.344;7.022;2023-04-24T05:01:25;8.70;99.90
16655;DHT22;8441;51.344;7.022;2023-04-24T05:03:53;8.70;99.90
16655;DHT22;8441;51.344;7.022;2023-04-24T05:06:21;8.70;99.90
16655;DHT22;8441;51.344;7.022;2023-04-24T05:08:48;8.70;99.90
16655;DHT22;8441;51.344;7.022;2023-04-24T05:11:16;8.70;99.90
16655;DHT22;8441;51.344;7.022;2023-04-24T05:13:43;8.60;99.90
16655;DHT22;8441;51.344;7.022;2023-04-24T05:16:11;8.70;99.90
16655;DHT22;8441;51.344;7.022;2023-04-24T05:18:38;8.60;99.90
16655;DHT22;8441;51.344;7.022;2023-04-24T05:21:05;8.50;99.90
16655;DHT22;8441;51.344;7.022;2023-04-24T05:23:34;8.50;99.90
16655;DHT22;8441;51.344;7.022;2023-04-24T05:26:01;8.50;99.90
16655;DHT22;8441;51.344;7.022;2023-04-24T05:28:28;8.40;99.90
16655;DHT22;8441;51.344;7.022;2023-04-24T05:30:55;8.40;99.90
16655;DHT22;8441;51.344;7.022;2023-04-24T05:33:22;8.30;99.90
16655;DHT22;8441;51.344;7.022;2023-04-24T05:35:50;8.30;99.90
16655;DHT22;8441;51.344;7.022;2023-04-24T05:38:17;8.30;99.90
16655;DHT22;8441;51.344;7.022;2023-04-24T05:40:46;8.30;99.90
16655;DHT22;8441;51.344;7.022;2023-04-24T05:43:13;8.30;99.90
16655;DHT22;8441;51.344;7.022;2023-04-24T05:45:41;8.20;99.90
16655;DHT22;8441;51.344;7.022;2023-04-24T05:48:08;8.30;99.90
16655;DHT22;8441;51.344;7.022;2023-04-24T05:50:35;8.20;99.90
16655;DHT22;8441;51.344;7.022;2023-04-24T05:53:02;8.30;99.90
16655;DHT22;8441;51.344;7.022;2023-04-24T05:55:30;8.20;99.90
16655;DHT22;8441;51.344;7.022;2023-04-24T05:57:59;8.30;99.90
16655;DHT22;8441;51.344;7.022;2023-04-24T06:00:26;8.30;99.90
16655;DHT22;8441;51.344;7.022;2023-04-24T06:02:54;8.30;99.90
16655;DHT22;8441;51.344;7.022;2023-04-24T06:05:21;8.30;99.90
16655;DHT22;8441;51.344;7.022;2023-04-24T06:07:48;8.30;99.90
16655;DHT22;8441;51.344;7.022;2023-04-24T06:10:16;8.20;99.90
16655;DHT22;8441;51.344;7.022;2023-04-24T06:12:43;8.20;99.90
16655;DHT22;8441;51.344;7.022;2023-04-24T06:15:12;8.20;99.90
16655;DHT22;8441;51.344;7.022;2023-04-24T06:17:39;8.30;99.90
16655;DHT22;8441;51.344;7.022;2023-04-24T06:20:07;8.30;99.90
16655;DHT22;8441;51.344;7.022;2023-04-24T06:22:34;8.40;99.90
16655;DHT22;8441;51.344;7.022;2023-04-24T06:25:02;8.40;99.90
16655;DHT22;8441;51.344;7.022;2023-04-24T06:27:30;8.40;99.90
16655;DHT22;8441;51.344;7.022;2023-04-24T06:29:57;8.40;99.90
16655;DHT22;8441;51.344;7.022;2023-04-24T06:32:26;8.50;99.90
16655;DHT22;8441;51.344;7.022;2023-04-24T06:34:53;8.50;99.90
16655;DHT22;8441;51.344;7.022;2023-04-24T06:37:21;8.60;99.90
16655;DHT22;8441;51.344;7.022;2023-04-24T06:39:48;8.60;99.90
16655;DHT22;8441;51.344;7.022;2023-04-24T06:42:15;8.60;99.90
16655;DHT22;8441;51.344;7.022;2023-04-24T06:44:42;8.60;99.90
16655;DHT22;8441;51.344;7.022;2023-04-24T06:47:10;8.50;99.90
16655;DHT22;8441;51.344;7.022;2023-04-24T06:49:40;8.50;99.90
16655;DHT22;8441;51.344;7.022;2023-04-24T06:52:07;8.50;99.90
16655;DHT22;8441;51.344;7.022;2023-04-24T06:54:35;8.50;99.90
16655;DHT22;8441;51.344;7.022;2023-04-24T06:57:02;8.50;99.90
16655;DHT22;8441;51.344;7.022;2023-04-24T06:59:29;8.50;99.90
16655;DHT22;8441;51.344;7.022;2023-04-24T07:01:56;8.40;99.90
16655;DHT22;8441;51.344;7.022;2023-04-24T07:04:24;8.30;99.90
16655;DHT22;8441;51.344;7.022;2023-04-24T07:06:52;8.30;99.90
16655;DHT22;8441;51.344;7.022;2023-04-24T07:09:21;8.40;99.90
16655;DHT22;8441;51.344;7.022;2023-04-24T07:11:49;8.40;99.90
16655;DHT22;8441;51.344;7.022;2023-04-24T07:14:17;8.50;99.90
16655;DHT22;8441;51.344;7.022;2023-04-24T07:16:44;8.50;99.90
16655;DHT22;8441;51.344;7.022;2023-04-24T07:19:12;8.50;99.90
16655;DHT22;8441;51.344;7.022;2023-04-24T07:21:41;8.40;99.90
16655;DHT22;8441;51.344;7.022;2023-04-24T07:24:10;8.40;99.90
16655;DHT22;8441;51.344;7.022;2023-04-24T07:26:40;8.40;99.90
16655;DHT22;8441;51.344;7.022;2023-04-24T07:29:08;8.40;99.90
16655;DHT22;8441;51.344;7.022;2023-04-24T07:31:35;8.40;99.90
16655;DHT22;8441;51.344;7.022;2023-04-24T07:34:02;8.50;99.90
16655;DHT22;8441;51.344;7.022;2023-04-24T07:36:29;8.60;99.90
16655;DHT22;8441;51.344;7.022;2023-04-24T07:38:58;8.80;99.90
16655;DHT22;8441;51.344;7.022;2023-04-24T07:41:26;8.80;99.90
16655;DHT22;8441;51.344;7.022;2023-04-24T07:43:54;8.60;99.90
16655;DHT22;8441;51.344;7.022;2023-04-24T07:46:21;8.60;99.90
16655;DHT22;8441;51.344;7.022;2023-04-24T07:48:49;8.50;99.90
16655;DHT22;8441;51.344;7.022;2023-04-24T07:51:16;8.50;99.90
16655;DHT22;8441;51.344;7.022;2023-04-24T07:53:44;8.50;99.90
16655;DHT22;8441;51.344;7.022;2023-04-24T07:56:11;8.40;99.90
16655;DHT22;8441;51.344;7.022;2023-04-24T07:58:39;8.40;99.90
16655;DHT22;8441;51.344;7.022;2023-04-24T08:01:07;8.20;99.90
16655;DHT22;8441;51.344;7.022;2023-04-24T08:03:34;8.30;99.90
16655;DHT22;8441;51.344;7.022;2023-04-24T08:06:01;8.40;99.90
16655;DHT22;8441;51.344;7.022;2023-04-24T08:08:28;8.30;99.90
16655;DHT22;8441;51.344;7.022;2023-04-24T08:10:56;8.20;99.90
16655;DHT22;8441;51.344;7.022;2023-04-24T08:13:23;8.10;99.90
16655;DHT22;8441;51.344;7.022;2023-04-24T08:15:51;8.10;99.90
16655;DHT22;8441;51.344;7.022;2023-04-24T08:18:18;8.00;99.90
16655;DHT22;8441;51.344;7.022;2023-04-24T08:20:45;7.90;99.90
16655;DHT22;8441;51.344;7.022;2023-04-24T08:23:13;7.80;99.90
16655;DHT22;8441;51.344;7.022;2023-04-24T08:25:40;7.80;99.90
16655;DHT22;8441;51.344;7.022;2023-04-24T08:28:09;7.70;99.90
16655;DHT22;8441;51.344;7.022;2023-04-24T08:30:36;7.70;99.90
16655;DHT22;8441;51.344;7.022;2023-04-24T08:33:05;7.70;99.90
16655;DHT22;8441;51.344;7.022;2023-04-24T08:35:33;7.70;99.90
16655;DHT22;8441;51.344;7.022;2023-04-24T08:38:00;7.60;99.90
16655;DHT22;8441;51.344;7.022;2023-04-24T08:40:28;7.70;99.90
16655;DHT22;8441;51.344;7.022;2023-04-24T08:42:56;7.70;99.90
16655;DHT22;8441;51.344;7.022;2023-04-24T08:45:24;7.70;99.90
16655;DHT22;8441;51.344;7.022;2023-04-24T08:47:53;7.70;99.90
16655;DHT22;8441;51.344;7.022;2023-04-24T08:50:22;7.80;99.90
16655;DHT22;8441;51.344;7.022;2023-04-24T08:52:50;7.80;99.90
16655;DHT22;8441;51.344;7.022;2023-04-24T08:55:19;7.80;99.90
16655;DHT22;8441;51.344;7.022;2023-04-24T08:57:50;7.80;99.90
16655;DHT22;8441;51.344;7.022;2023-04-24T09:00:19;7.90;99.90
16655;DHT22;8441;51.344;7.022;2023-04-24T09:02:49;8.00;99.90
16655;DHT22;8441;51.344;7.022;2023-04-24T09:05:17;8.00;99.90
16655;DHT22;8441;51.344;7.022;2023-04-24T09:07:50;8.10;99.90
16655;DHT22;8441;51.344;7.022;2023-04-24T09:10:21;8.40;99.90
16655;DHT22;8441;51.344;7.022;2023-04-24T09:12:50;8.50;99.90
16655;DHT22;8441;51.344;7.022;2023-04-24T09:15:18;8.50;99.90
16655;DHT22;8441;51.344;7.022;2023-04-24T09:17:46;8.50;99.90
16655;DHT22;8441;51.344;7.022;2023-04-24T09:20:13;8.50;99.90
16655;DHT22;8441;51.344;7.022;2023-04-24T09:22:42;8.40;99.90
16655;DHT22;8441;51.344;7.022;2023-04-24T09:25:10;8.20;99.90
16655;DHT22;8441;51.344;7.022;2023-04-24T09:27:42;8.10;99.90
16655;DHT22;8441;51.344;7.022;2023-04-24T09:30:10;8.00;99.90
16655;DHT22;8441;51.344;7.022;2023-04-24T09:32:37;8.00;99.90
16655;DHT22;8441;51.344;7.022;2023-04-24T09:35:06;8.10;99.90
16655;DHT22;8441;51.344;7.022;2023-04-24T09:37:36;8.00;99.90
16655;DHT22;8441;51.344;7.022;2023-04-24T09:40:16;8.00;99.90
16655;DHT22;8441;51.344;7.022;2023-04-24T09:42:51;7.90;99.90
16655;DHT22;8441;51.344;7.022;2023-04-24T09:45:18;7.90;99.90
16655;DHT22;8441;51.344;7.022;2023-04-24T09:47:45;7.90;99.90
16655;DHT22;8441;51.344;7.022;2023-04-24T09:50:14;7.90;99.90
16655;DHT22;8441;51.344;7.022;2023-04-24T09:52:44;7.90;99.90
16655;DHT22;8441;51.344;7.022;2023-04-24T09:55:16;7.80;99.90
16655;DHT22;8441;51.344;7.022;2023-04-24T09:57:50;7.80;99.90
16655;DHT22;8441;51.344;7.022;2023-04-24T10:00:21;7.70;99.90
16655;DHT22;8441;51.344;7.022;2023-04-24T10:02:54;7.70;99.90
16655;DHT22;8441;51.344;7.022;2023-04-24T10:05:27;7.70;99.90
16655;DHT22;8441;51.344;7.022;2023-04-24T10:07:57;7.80;99.90
16655;DHT22;8441;51.344;7.022;2023-04-24T10:10:26;7.80;99.90
16655;DHT22;8441;51.344;7.022;2023-04-24T10:12:53;7.80;99.90
16655;DHT22;8441;51.344;7.022;2023-04-24T10:15:21;7.80;99.90
16655;DHT22;8441;51.344;7.022;2023-04-24T10:17:50;7.70;99.90
16655;DHT22;8441;51.344;7.022;2023-04-24T10:20:23;7.70;99.90
16655;DHT22;8441;51.344;7.022;2023-04-24T10:22:52;7.70;99.90
16655;DHT22;8441;51.344;7.022;2023-04-24T10:25:20;7.70;99.90
16655;DHT22;8441;51.344;7.022;2023-04-24T10:27:50;7.80;99.90
16655;DHT22;8441;51.344;7.022;2023-04-24T10:30:18;8.00;99.90
16655;DHT22;8441;51.344;7.022;2023-04-24T10:32:46;8.10;99.90
16655;DHT22;8441;51.344;7.022;2023-04-24T10:35:14;8.30;99.90
16655;DHT22;8441;51.344;7.022;2023-04-24T10:37:44;8.50;99.90
16655;DHT22;8441;51.344;7.022;2023-04-24T10:40:17;8.50;99.90
16655;DHT22;8441;51.344;7.022;2023-04-24T10:42:51;8.40;99.90
16655;DHT22;8441;51.344;7.022;2023-04-24T10:45:19;8.40;99.90
16655;DHT22;8441;51.344;7.022;2023-04-24T10:47:57;8.30;99.90
16655;DHT22;8441;51.344;7.022;2023-04-24T10:50:26;8.20;99.90
16655;DHT22;8441;51.344;7.022;2023-04-24T10:52:55;8.20;99.90
16655;DHT22;8441;51.344;7.022;2023-04-24T10:55:43;8.20;99.90
16655;DHT22;8441;51.344;7.022;2023-04-24T10:58:12;8.20;99.90
16655;DHT22;8441;51.344;7.022;2023-04-24T11:00:41;8.30;99.90
16655;DHT22;8441;51.344;7.022;2023-04-24T11:03:24;8.40;99.90
16655;DHT22;8441;51.344;7.022;2023-04-24T11:05:55;8.40;99.90
16655;DHT22;8441;51.344;7.022;2023-04-24T11:08:25;8.50;99.90
16655;DHT22;8441;51.344;7.022;2023-04-24T11:10:58;8.50;99.90
16655;DHT22;8441;51.344;7.022;2023-04-24T11:16:44;8.50;99.90
16655;DHT22;8441;51.344;7.022;2023-04-24T11:19:21;8.50;99.90
16655;DHT22;8441;51.344;7.022;2023-04-24T11:21:55;8.60;99.90
16655;DHT22;8441;51.344;7.022;2023-04-24T11:24:31;8.60;99.90
16655;DHT22;8441;51.344;7.022;2023-04-24T11:27:05;8.70;99.90
16655;DHT22;8441;51.344;7.022;2023-04-24T11:29:42;8.70;99.90
16655;DHT22;8441;51.344;7.022;2023-04-24T11:32:17;8.70;99.90
16655;DHT22;8441;51.344;7.022;2023-04-24T11:34:49;8.80;99.90
16655;DHT22;8441;51.344;7.022;2023-04-24T11:37:16;8.90;99.90
16655;DHT22;8441;51.344;7.022;2023-04-24T11:39:44;8.80;99.90
16655;DHT22;8441;51.344;7.022;2023-04-24T11:42:14;8.80;99.90
16655;DHT22;8441;51.344;7.022;2023-04-24T11:44:43;9.10;99.90
16655;DHT22;8441;51.344;7.022;2023-04-24T11:47:10;9.30;99.90
16655;DHT22;8441;51.344;7.022;2023-04-24T11:49:37;9.70;99.90
16655;DHT22;8441;51.344;7.022;2023-04-24T11:52:05;9.80;99.90
16655;DHT22;8441;51.344;7.022;2023-04-24T11:54:32;9.80;99.90
16655;DHT22;8441;51.344;7.022;2023-04-24T11:56:59;9.80;99.90
16655;DHT22;8441;51.344;7.022;2023-04-24T11:59:35;9.80;99.90
16655;DHT22;8441;51.344;7.022;2023-04-24T12:02:05;10.00;99.90
16655;DHT22;8441;51.344;7.022;2023-04-24T12:04:39;10.20;99.90
16655;DHT22;8441;51.344;7.022;2023-04-24T12:07:06;10.50;99.90
16655;DHT22;8441;51.344;7.022;2023-04-24T12:09:44;10.80;99.90
16655;DHT22;8441;51.344;7.022;2023-04-24T12:12:12;11.00;99.90
16655;DHT22;8441;51.344;7.022;2023-04-24T12:14:52;10.80;99.90
16655;DHT22;8441;51.344;7.022;2023-04-24T12:17:26;10.60;99.90
16655;DHT22;8441;51.344;7.022;2023-04-24T12:19:57;10.50;99.90
16655;DHT22;8441;51.344;7.022;2023-04-24T12:22:25;10.50;99.90
16655;DHT22;8441;51.344;7.022;2023-04-24T12:25:00;10.40;99.90
16655;DHT22;8441;51.344;7.022;2023-04-24T12:27:30;10.20;99.90
16655;DHT22;8441;51.344;7.022;2023-04-24T12:29:59;10.20;99.90
16655;DHT22;8441;51.344;7.022;2023-04-24T12:32:27;10.00;99.90
16655;DHT22;8441;51.344;7.022;2023-04-24T12:34:55;9.70;99.90
16655;DHT22;8441;51.344;7.022;2023-04-24T12:37:23;9.60;99.90
16655;DHT22;8441;51.344;7.022;2023-04-24T12:40:01;9.40;99.90
16655;DHT22;8441;51.344;7.022;2023-04-24T12:42:30;9.20;99.90
16655;DHT22;8441;51.344;7.022;2023-04-24T12:44:58;9.10;99.90
16655;DHT22;8441;51.344;7.022;2023-04-24T12:47:28;9.20;99.90
16655;DHT22;8441;51.344;7.022;2023-04-24T12:49:55;9.20;99.90
16655;DHT22;8441;51.344;7.022;2023-04-24T12:52:22;9.20;99.90
16655;DHT22;8441;51.344;7.022;2023-04-24T12:54:52;9.30;99.90
16655;DHT22;8441;51.344;7.022;2023-04-24T12:57:20;9.50;99.90
16655;DHT22;8441;51.344;7.022;2023-04-24T12:59:47;10.00;99.90
16655;DHT22;8441;51.344;7.022;2023-04-24T13:02:14;10.30;99.90
16655;DHT22;8441;51.344;7.022;2023-04-24T13:04:45;10.40;99.90
16655;DHT22;8441;51.344;7.022;2023-04-24T13:07:13;10.50;99.90
16655;DHT22;8441;51.344;7.022;2023-04-24T13:09:41;10.60;99.90
16655;DHT22;8441;51.344;7.022;2023-04-24T13:12:08;10.20;99.90
16655;DHT22;8441;51.344;7.022;2023-04-24T13:14:36;9.80;99.90
16655;DHT22;8441;51.344;7.022;2023-04-24T13:17:03;9.60;99.90
16655;DHT22;8441;51.344;7.022;2023-04-24T13:19:35;9.60;99.90
16655;DHT22;8441;51.344;7.022;2023-04-24T13:22:04;9.50;99.90
16655;DHT22;8441;51.344;7.022;2023-04-24T13:24:32;9.50;99.90
16655;DHT22;8441;51.344;7.022;2023-04-24T13:26:59;9.50;99.90
16655;DHT22;8441;51.344;7.022;2023-04-24T13:29:27;9.60;99.90
16655;DHT22;8441;51.344;7.022;2023-04-24T13:31:54;9.70;99.90
16655;DHT22;8441;51.344;7.022;2023-04-24T13:34:22;9.80;99.90
16655;DHT22;8441;51.344;7.022;2023-04-24T13:36:49;9.90;99.90
16655;DHT22;8441;51.344;7.022;2023-04-24T13:39:19;10.10;99.90
16655;DHT22;8441;51.344;7.022;2023-04-24T13:41:46;10.10;99.90
16655;DHT22;8441;51.344;7.022;2023-04-24T13:44:14;10.00;99.90
16655;DHT22;8441;51.344;7.022;2023-04-24T13:46:41;10.10;99.90
16655;DHT22;8441;51.344;7.022;2023-04-24T13:49:09;10.20;99.90
16655;DHT22;8441;51.344;7.022;2023-04-24T13:51:37;10.10;99.90
16655;DHT22;8441;51.344;7.022;2023-04-24T13:54:04;10.10;99.90
16655;DHT22;8441;51.344;7.022;2023-04-24T13:56:32;10.40;99.90
16655;DHT22;8441;51.344;7.022;2023-04-24T13:59:00;10.60;99.90
16655;DHT22;8441;51.344;7.022;2023-04-24T14:01:27;10.70;99.90
16655;DHT22;8441;51.344;7.022;2023-04-24T14:03:55;10.70;99.90
16655;DHT22;8441;51.344;7.022;2023-04-24T14:06:22;10.70;99.90
16655;DHT22;8441;51.344;7.022;2023-04-24T14:08:50;10.60;99.90
16655;DHT22;8441;51.344;7.022;2023-04-24T14:11:18;10.50;99.90
16655;DHT22;8441;51.344;7.022;2023-04-24T14:13:46;10.40;99.90
16655;DHT22;8441;51.344;7.022;2023-04-24T14:16:13;10.30;99.90
16655;DHT22;8441;51.344;7.022;2023-04-24T14:18:41;10.20;99.90
16655;DHT22;8441;51.344;7.022;2023-04-24T14:21:08;10.40;99.90
16655;DHT22;8441;51.344;7.022;2023-04-24T14:23:35;10.50;99.90
16655;DHT22;8441;51.344;7.022;2023-04-24T14:26:02;10.90;99.90
16655;DHT22;8441;51.344;7.022;2023-04-24T14:28:29;11.20;99.90
16655;DHT22;8441;51.344;7.022;2023-04-24T14:30:58;11.40;99.90
16655;DHT22;8441;51.344;7.022;2023-04-24T14:33:25;11.50;99.90
16655;DHT22;8441;51.344;7.022;2023-04-24T14:35:52;11.50;99.90
16655;DHT22;8441;51.344;7.022;2023-04-24T14:38:19;11.40;99.90
16655;DHT22;8441;51.344;7.022;2023-04-24T14:40:46;11.30;99.90
16655;DHT22;8441;51.344;7.022;2023-04-24T14:43:13;11.30;99.90
16655;DHT22;8441;51.344;7.022;2023-04-24T14:45:41;11.30;99.90
16655;DHT22;8441;51.344;7.022;2023-04-24T14:48:09;11.00;99.90
16655;DHT22;8441;51.344;7.022;2023-04-24T14:50:36;10.90;99.90
16655;DHT22;8441;51.344;7.022;2023-04-24T14:53:04;10.80;99.90
16655;DHT22;8441;51.344;7.022;2023-04-24T14:55:31;10.80;99.90
16655;DHT22;8441;51.344;7.022;2023-04-24T14:57:59;10.60;99.90
16655;DHT22;8441;51.344;7.022;2023-04-24T15:00:27;10.50;99.90
16655;DHT22;8441;51.344;7.022;2023-04-24T15:02:54;10.50;99.90
16655;DHT22;8441;51.344;7.022;2023-04-24T15:05:23;10.40;99.90
16655;DHT22;8441;51.344;7.022;2023-04-24T15:07:50;10.20;99.90
16655;DHT22;8441;51.344;7.022;2023-04-24T15:10:17;10.10;99.90
16655;DHT22;8441;51.344;7.022;2023-04-24T15:12:48;10.10;99.90
16655;DHT22;8441;51.344;7.022;2023-04-24T15:15:15;10.10;99.90
16655;DHT22;8441;51.344;7.022;2023-04-24T15:17:42;10.20;99.90
16655;DHT22;8441;51.344;7.022;2023-04-24T15:20:09;10.40;99.90
16655;DHT22;8441;51.344;7.022;2023-04-24T15:22:38;10.50;99.90
16655;DHT22;8441;51.344;7.022;2023-04-24T15:25:06;10.70;99.90
16655;DHT22;8441;51.344;7.022;2023-04-24T15:27:43;10.80;99.90
16655;DHT22;8441;51.344;7.022;2023-04-24T15:30:11;10.90;99.90
16655;DHT22;8441;51.344;7.022;2023-04-24T15:32:39;11.10;99.90
16655;DHT22;8441;51.344;7.022;2023-04-24T15:35:07;11.20;99.90
16655;DHT22;8441;51.344;7.022;2023-04-24T15:37:34;11.30;99.90
16655;DHT22;8441;51.344;7.022;2023-04-24T15:40:03;11.30;99.90
16655;DHT22;8441;51.344;7.022;2023-04-24T15:42:32;11.10;99.90
16655;DHT22;8441;51.344;7.022;2023-04-24T15:44:59;11.00;99.90
16655;DHT22;8441;51.344;7.022;2023-04-24T15:47:27;10.90;99.90
16655;DHT22;8441;51.344;7.022;2023-04-24T15:49:54;10.90;99.90
16655;DHT22;8441;51.344;7.022;2023-04-24T15:52:21;11.00;99.90
16655;DHT22;8441;51.344;7.022;2023-04-24T15:54:48;11.00;99.90
16655;DHT22;8441;51.344;7.022;2023-04-24T15:57:17;11.00;99.90
16655;DHT22;8441;51.344;7.022;2023-04-24T15:59:44;10.90;99.90
16655;DHT22;8441;51.344;7.022;2023-04-24T16:02:12;10.90;99.90
16655;DHT22;8441;51.344;7.022;2023-04-24T16:04:44;10.90;99.90
16655;DHT22;8441;51.344;7.022;2023-04-24T16:07:12;10.70;99.90